createdAt,value
2019-03-18T00:00:21.085Z,6.80
2019-03-18T00:04:31.539Z,6.47
2019-03-18T00:08:42.155Z,6.13
2019-03-18T00:12:52.338Z,5.70
2019-03-18T00:17:02.288Z,6.13
2019-03-18T00:21:12.978Z,6.03
2019-03-18T00:25:25.123Z,5.63
2019-03-18T00:29:34.867Z,5.67
2019-03-18T00:33:45.289Z,5.40
2019-03-18T00:37:55.122Z,5.83
2019-03-18T00:42:05.627Z,6.13
2019-03-18T00:46:15.378Z,5.47
2019-03-18T00:50:26.358Z,5.20
2019-03-18T00:54:35.805Z,5.20
2019-03-18T00:58:45.736Z,4.77
2019-03-18T01:02:55.399Z,5.33
2019-03-18T01:07:05.440Z,5.13
2019-03-18T01:11:15.017Z,5.40
2019-03-18T01:15:28.196Z,4.60
2019-03-18T01:19:36.957Z,4.60
2019-03-18T01:23:46.937Z,5.50
2019-03-18T01:27:56.658Z,4.97
2019-03-18T01:32:06.689Z,5.17
2019-03-18T01:36:16.308Z,5.70
2019-03-18T01:40:25.876Z,5.50
2019-03-18T01:44:35.635Z,5.97
2019-03-18T01:48:45.773Z,5.40
2019-03-18T01:52:55.353Z,4.80
2019-03-18T01:57:05.400Z,5.47
2019-03-18T02:01:14.854Z,5.53
2019-03-18T02:05:24.910Z,5.63
2019-03-18T02:09:34.767Z,4.70
2019-03-18T02:13:44.353Z,5.50
2019-03-18T02:17:53.956Z,5.40
2019-03-18T02:22:04.097Z,5.37
2019-03-18T02:26:13.518Z,4.73
2019-03-18T02:30:23.370Z,5.27
2019-03-18T02:34:33.068Z,5.40
2019-03-18T02:38:43.613Z,4.97
2019-03-18T02:42:53.085Z,6.07
2019-03-18T02:47:02.897Z,5.97
2019-03-18T02:51:12.467Z,4.37
2019-03-18T02:55:22.452Z,5.57
2019-03-18T02:59:32.348Z,5.50
2019-03-18T03:03:42.501Z,4.87
2019-03-18T03:07:51.951Z,5.67
2019-03-18T03:12:01.610Z,5.70
2019-03-18T03:16:25.616Z,5.10
2019-03-18T03:20:22.619Z,5.53
2019-03-18T03:24:32.424Z,5.27
2019-03-18T03:28:42.261Z,5.33
2019-03-18T03:32:51.641Z,4.70
2019-03-18T03:37:02.738Z,4.20
2019-03-18T03:41:12.315Z,5.40
2019-03-18T03:45:22.177Z,5.37
2019-03-18T03:49:31.786Z,5.30
2019-03-18T03:53:41.695Z,4.90
2019-03-18T03:57:51.586Z,5.80
2019-03-18T04:02:01.544Z,5.40
2019-03-18T04:06:11.095Z,5.10
2019-03-18T04:10:20.731Z,4.80
2019-03-18T04:14:30.469Z,5.50
2019-03-18T04:18:40.225Z,4.63
2019-03-18T04:22:50.041Z,4.97
2019-03-18T04:27:00.057Z,5.53
2019-03-18T04:31:10.370Z,5.00
2019-03-18T04:35:19.933Z,5.10
2019-03-18T04:39:29.733Z,4.80
2019-03-18T04:43:39.347Z,5.87
2019-03-18T04:47:48.846Z,4.67
2019-03-18T04:51:58.605Z,5.27
2019-03-18T04:56:14.114Z,4.93
2019-03-18T05:00:23.796Z,5.47
2019-03-18T05:04:33.142Z,4.87
2019-03-18T05:08:42.831Z,4.80
2019-03-18T05:12:53.045Z,5.50
2019-03-18T05:17:02.940Z,4.30
2019-03-18T05:21:12.292Z,4.43
2019-03-18T05:25:23.398Z,4.97
2019-03-18T05:29:33.428Z,4.50
2019-03-18T05:33:43.057Z,4.93
2019-03-18T05:37:53.135Z,4.57
2019-03-18T05:42:03.090Z,5.13
2019-03-18T05:46:12.392Z,4.90
2019-03-18T05:50:22.381Z,4.80
2019-03-18T05:54:31.826Z,4.57
2019-03-18T05:58:41.772Z,5.10
2019-03-18T06:02:51.515Z,4.57
2019-03-18T06:07:01.106Z,4.17
2019-03-18T06:11:10.567Z,4.80
2019-03-18T06:15:20.323Z,4.47
2019-03-18T06:19:29.808Z,4.93
2019-03-18T06:23:39.774Z,4.00
2019-03-18T06:27:49.328Z,5.20
2019-03-18T06:31:58.884Z,4.97
2019-03-18T06:36:08.591Z,5.23
2019-03-18T06:40:18.329Z,5.13
2019-03-18T06:44:31.166Z,4.83
2019-03-18T06:48:40.843Z,5.40
2019-03-18T06:52:51.329Z,5.10
2019-03-18T06:57:01.196Z,4.63
2019-03-18T07:01:10.702Z,4.37
2019-03-18T07:05:20.405Z,4.40
2019-03-18T07:09:30.081Z,4.50
2019-03-18T07:13:39.852Z,4.80
2019-03-18T07:17:49.287Z,5.00
2019-03-18T07:21:58.778Z,5.10
2019-03-18T07:26:08.192Z,4.70
2019-03-18T07:30:17.975Z,4.97
2019-03-18T07:34:27.547Z,4.67
2019-03-18T07:38:37.464Z,4.50
2019-03-18T07:42:47.574Z,4.50
2019-03-18T07:46:57.274Z,4.60
2019-03-18T07:51:07.427Z,4.23
2019-03-18T07:55:17.461Z,4.30
2019-03-18T07:59:26.881Z,4.37
2019-03-18T08:03:36.647Z,4.70
2019-03-18T08:07:46.379Z,5.60
2019-03-18T08:11:56.552Z,4.17
2019-03-18T08:16:06.241Z,4.37
2019-03-18T08:20:16.081Z,4.70
2019-03-18T08:24:25.466Z,5.10
2019-03-18T08:28:35.399Z,4.80
2019-03-18T08:32:44.943Z,4.67
2019-03-18T08:36:54.778Z,5.03
2019-03-18T08:41:04.475Z,4.57
2019-03-18T08:45:14.297Z,6.20
2019-03-18T08:49:23.719Z,6.07
2019-03-18T08:53:33.216Z,4.77
2019-03-18T08:57:44.457Z,5.20
2019-03-18T09:01:54.003Z,4.50
2019-03-18T09:06:03.340Z,5.10
2019-03-18T09:10:13.857Z,4.67
2019-03-18T09:14:23.304Z,4.70
2019-03-18T09:18:33.058Z,5.33
2019-03-18T09:22:42.623Z,5.10
2019-03-18T09:27:01.791Z,5.37
2019-03-18T09:31:03.170Z,5.03
2019-03-18T09:35:12.999Z,5.60
2019-03-18T09:39:22.401Z,5.60
2019-03-18T09:43:32.337Z,4.90
2019-03-18T09:47:42.260Z,5.60
2019-03-18T09:51:52.100Z,4.37
2019-03-18T09:56:04.671Z,5.43
2019-03-18T10:00:14.747Z,5.30
2019-03-18T10:04:24.391Z,4.70
2019-03-18T10:08:34.238Z,4.73
2019-03-18T10:12:43.809Z,4.90
2019-03-18T10:16:53.219Z,5.90
2019-03-18T10:21:02.631Z,7.90
2019-03-18T10:25:12.787Z,6.37
2019-03-18T10:29:22.451Z,6.13
2019-03-18T10:33:31.919Z,5.50
2019-03-18T10:37:41.779Z,5.60
2019-03-18T10:41:51.562Z,5.80
2019-03-18T10:46:01.330Z,10.80
2019-03-18T10:50:11.977Z,6.70
2019-03-18T10:54:30.355Z,6.60
2019-03-18T10:58:32.654Z,5.47
2019-03-18T11:02:44.817Z,5.87
2019-03-18T11:06:54.463Z,6.83
2019-03-18T11:11:04.268Z,5.33
2019-03-18T11:15:15.069Z,6.17
2019-03-18T11:19:25.217Z,5.87
2019-03-18T11:23:34.968Z,6.00
2019-03-18T11:27:44.652Z,6.20
2019-03-18T11:31:54.651Z,6.03
2019-03-18T11:36:04.314Z,6.07
2019-03-18T11:40:14.719Z,5.93
2019-03-18T11:44:24.710Z,5.90
2019-03-18T11:48:34.301Z,5.63
2019-03-18T11:52:44.115Z,6.37
2019-03-18T11:56:54.014Z,5.70
2019-03-18T12:01:03.831Z,5.43
2019-03-18T12:05:17.223Z,6.87
2019-03-18T12:09:27.794Z,6.40
2019-03-18T12:13:37.407Z,5.63
2019-03-18T12:17:47.407Z,5.43
2019-03-18T12:21:57.245Z,6.17
2019-03-18T12:26:07.022Z,5.13
2019-03-18T12:30:19.657Z,5.33
2019-03-18T12:34:29.425Z,5.63
2019-03-18T12:38:39.012Z,5.60
2019-03-18T12:42:48.590Z,6.27
2019-03-18T12:46:58.207Z,4.80
2019-03-18T12:51:08.064Z,5.10
2019-03-18T12:55:18.619Z,5.63
2019-03-18T12:59:29.218Z,5.97
2019-03-18T13:03:39.708Z,5.90
2019-03-18T13:07:50.069Z,5.27
2019-03-18T13:12:01.125Z,5.63
2019-03-18T13:16:11.633Z,4.87
2019-03-18T13:20:22.350Z,4.60
2019-03-18T13:24:33.631Z,5.60
2019-03-18T13:28:44.462Z,5.27
2019-03-18T13:32:55.621Z,4.97
2019-03-18T13:37:06.315Z,5.70
2019-03-18T13:41:17.369Z,4.87
2019-03-18T13:45:27.865Z,6.00
2019-03-18T13:49:38.559Z,4.37
2019-03-18T13:53:49.222Z,5.23
2019-03-18T13:57:59.649Z,4.83
2019-03-18T14:02:10.125Z,5.50
2019-03-18T14:06:21.064Z,5.10
2019-03-18T14:10:32.124Z,5.30
2019-03-18T14:14:43.597Z,4.83
2019-03-18T14:18:53.392Z,4.73
2019-03-18T14:23:02.928Z,4.60
2019-03-18T14:27:12.558Z,4.90
2019-03-18T14:31:22.404Z,5.40
2019-03-18T14:35:32.178Z,5.30
2019-03-18T14:39:39.832Z,5.13
2019-03-18T14:43:49.888Z,4.60
2019-03-18T14:47:59.508Z,4.70
2019-03-18T14:52:09.368Z,4.70
2019-03-18T14:56:18.760Z,4.60
2019-03-18T15:00:28.899Z,5.47
2019-03-18T15:04:38.571Z,5.37
2019-03-18T15:08:48.533Z,6.13
2019-03-18T15:12:58.363Z,6.67
2019-03-18T15:17:09.167Z,5.10
2019-03-18T15:21:18.827Z,5.43
2019-03-18T15:25:28.689Z,5.53
2019-03-18T15:29:38.381Z,4.90
2019-03-18T15:33:48.188Z,6.20
2019-03-18T15:37:57.637Z,4.80
2019-03-18T15:42:07.613Z,4.47
2019-03-18T15:46:17.144Z,4.87
2019-03-18T15:50:26.978Z,5.57
2019-03-18T15:54:36.652Z,6.67
2019-03-18T15:58:47.622Z,5.53
2019-03-18T16:02:56.960Z,5.83
2019-03-18T16:07:07.034Z,6.60
2019-03-18T16:11:16.683Z,6.27
2019-03-18T16:15:26.397Z,6.37
2019-03-18T16:19:36.046Z,6.77
2019-03-18T16:23:45.540Z,7.00
2019-03-18T16:27:55.046Z,6.90
2019-03-18T16:32:11.175Z,7.53
2019-03-18T16:36:17.127Z,6.40
2019-03-18T16:40:27.181Z,6.10
2019-03-18T16:44:37.123Z,6.90
2019-03-18T16:48:47.105Z,6.33
2019-03-18T16:52:56.724Z,7.40
2019-03-18T16:57:06.134Z,7.53
2019-03-18T17:01:15.618Z,6.20
2019-03-18T17:05:25.301Z,6.17
2019-03-18T17:09:34.978Z,6.90
2019-03-18T17:13:44.480Z,6.27
2019-03-18T17:17:54.322Z,5.60
2019-03-18T17:22:03.753Z,5.47
2019-03-18T17:26:13.411Z,5.50
2019-03-18T17:30:23.070Z,4.70
2019-03-18T17:34:32.828Z,4.83
2019-03-18T17:38:42.187Z,4.90
2019-03-18T17:42:52.285Z,5.77
2019-03-18T17:47:01.767Z,4.87
2019-03-18T17:51:11.595Z,4.87
2019-03-18T17:55:21.710Z,4.70
2019-03-18T17:59:31.954Z,5.40
2019-03-18T18:03:41.664Z,4.63
2019-03-18T18:07:51.721Z,4.33
2019-03-18T18:12:01.769Z,4.17
2019-03-18T18:16:11.454Z,4.27
2019-03-18T18:20:20.912Z,5.00
2019-03-18T18:24:30.889Z,4.07
2019-03-18T18:28:40.519Z,4.97
2019-03-18T18:32:51.623Z,4.43
2019-03-18T18:37:01.155Z,4.40
2019-03-18T18:41:11.044Z,4.43
2019-03-18T18:45:21.350Z,4.63
2019-03-18T18:49:32.580Z,5.30
2019-03-18T18:53:42.081Z,4.30
2019-03-18T18:57:52.181Z,4.10
2019-03-18T19:02:01.591Z,5.60
2019-03-18T19:06:11.466Z,4.47
2019-03-18T19:10:21.234Z,4.97
2019-03-18T19:14:30.879Z,5.10
2019-03-18T19:18:40.411Z,4.40
2019-03-18T19:22:51.121Z,3.30
2019-03-18T19:27:00.714Z,4.77
2019-03-18T19:31:10.736Z,4.70
2019-03-18T19:35:20.731Z,3.80
2019-03-18T19:39:30.492Z,4.83
2019-03-18T19:43:39.986Z,4.17
2019-03-18T19:47:53.025Z,4.30
2019-03-18T19:52:01.432Z,4.70
2019-03-18T19:56:11.294Z,4.43
2019-03-18T20:00:22.617Z,5.00
2019-03-18T20:04:32.592Z,4.00
2019-03-18T20:08:42.284Z,4.00
2019-03-18T20:12:52.210Z,4.10
2019-03-18T20:17:01.995Z,4.00
2019-03-18T20:21:12.848Z,3.83
2019-03-18T20:25:22.904Z,4.30
2019-03-18T20:29:32.602Z,3.93
2019-03-18T20:33:42.477Z,4.03
2019-03-18T20:37:52.557Z,3.70
2019-03-18T20:42:02.063Z,4.40
2019-03-18T20:46:11.630Z,3.70
2019-03-18T20:50:24.268Z,3.87
2019-03-18T20:54:34.347Z,4.57
2019-03-18T20:58:44.243Z,3.60
2019-03-18T21:02:54.493Z,4.40
2019-03-18T21:07:04.583Z,4.50
2019-03-18T21:11:14.679Z,4.87
2019-03-18T21:15:24.878Z,4.70
2019-03-18T21:19:34.648Z,4.80
2019-03-18T21:23:44.225Z,4.27
2019-03-18T21:27:53.733Z,4.40
2019-03-18T21:32:03.339Z,4.30
2019-03-18T21:36:25.163Z,4.43
2019-03-18T21:40:24.007Z,4.50
2019-03-18T21:44:34.130Z,4.43
2019-03-18T21:48:43.678Z,4.83
2019-03-18T21:52:53.738Z,5.10
2019-03-18T21:57:03.280Z,5.13
2019-03-18T22:01:12.966Z,4.90
2019-03-18T22:05:22.520Z,3.60
2019-03-18T22:09:32.418Z,4.87
2019-03-18T22:13:42.326Z,4.70
2019-03-18T22:17:52.236Z,4.60
2019-03-18T22:22:02.696Z,8.40
2019-03-18T22:26:12.385Z,4.70
2019-03-18T22:30:22.407Z,4.77
2019-03-18T22:34:34.414Z,5.00
2019-03-18T22:38:44.178Z,4.87
2019-03-18T22:42:53.706Z,3.80
2019-03-18T22:47:03.221Z,3.63
2019-03-18T22:51:12.907Z,3.67
2019-03-18T22:55:23.042Z,4.20
2019-03-18T22:59:32.475Z,3.70
2019-03-18T23:03:42.329Z,4.00
2019-03-18T23:07:52.148Z,3.43
2019-03-18T23:12:02.023Z,3.50
2019-03-18T23:16:16.169Z,4.00
2019-03-18T23:20:25.975Z,3.80
2019-03-18T23:24:37.046Z,3.73
2019-03-18T23:28:47.707Z,4.07
2019-03-18T23:32:58.113Z,3.40
2019-03-18T23:37:08.721Z,3.90
2019-03-18T23:41:19.451Z,4.00
2019-03-18T23:45:30.274Z,4.60
2019-03-18T23:49:40.900Z,5.80
2019-03-18T23:53:51.558Z,5.97
2019-03-18T23:58:03.137Z,5.83
